createdAt,value
2022-10-29T00:01:10.881Z,100.00
2022-10-29T00:03:39.388Z,100.00
2022-10-29T00:06:12.761Z,100.00
2022-10-29T00:08:42.152Z,100.00
2022-10-29T00:11:13.878Z,100.00
2022-10-29T00:13:45.936Z,100.00
2022-10-29T00:16:16.186Z,100.00
2022-10-29T00:18:45.010Z,100.00
2022-10-29T00:21:18.617Z,100.00
2022-10-29T00:23:48.666Z,100.00
2022-10-29T00:26:18.336Z,100.00
2022-10-29T00:28:46.554Z,100.00
2022-10-29T00:31:17.013Z,100.00
2022-10-29T00:33:45.329Z,100.00
2022-10-29T00:36:16.811Z,100.00
2022-10-29T00:38:45.556Z,100.00
2022-10-29T00:41:16.775Z,100.00
2022-10-29T00:43:50.908Z,100.00
2022-10-29T00:46:25.927Z,100.00
2022-10-29T00:48:57.023Z,100.00
2022-10-29T00:51:27.702Z,100.00
2022-10-29T00:54:04.113Z,100.00
2022-10-29T00:56:37.783Z,100.00
2022-10-29T00:59:07.969Z,100.00
2022-10-29T01:01:36.463Z,100.00
2022-10-29T01:04:08.738Z,100.00
2022-10-29T01:06:39.186Z,100.00
2022-10-29T01:09:08.197Z,100.00
2022-10-29T01:11:49.555Z,100.00
2022-10-29T01:14:31.382Z,100.00
2022-10-29T01:17:07.542Z,100.00
2022-10-29T01:19:57.720Z,100.00
2022-10-29T01:22:39.020Z,100.00
2022-10-29T01:25:33.880Z,100.00
2022-10-29T01:28:14.297Z,100.00
2022-10-29T01:31:06.808Z,100.00
2022-10-29T01:33:43.699Z,100.00
2022-10-29T01:36:20.470Z,100.00
2022-10-29T01:38:54.826Z,100.00
2022-10-29T01:41:27.702Z,100.00
2022-10-29T01:44:00.461Z,100.00
2022-10-29T01:46:38.335Z,100.00
2022-10-29T01:49:16.482Z,100.00
2022-10-29T01:51:46.660Z,100.00
2022-10-29T01:54:15.358Z,100.00
2022-10-29T01:56:43.818Z,100.00
2022-10-29T01:59:28.689Z,100.00
2022-10-29T02:02:13.188Z,100.00
2022-10-29T02:04:56.501Z,100.00
2022-10-29T02:07:36.623Z,100.00
2022-10-29T02:10:14.651Z,100.00
2022-10-29T02:12:49.121Z,100.00
2022-10-29T02:15:20.886Z,100.00
2022-10-29T02:17:50.826Z,100.00
2022-10-29T02:20:22.131Z,100.00
2022-10-29T02:22:50.605Z,100.00
2022-10-29T02:25:19.006Z,100.00
2022-10-29T02:27:48.280Z,100.00
2022-10-29T02:30:16.977Z,100.00
2022-10-29T02:32:45.488Z,100.00
2022-10-29T02:35:15.189Z,100.00
2022-10-29T02:37:44.676Z,100.00
2022-10-29T02:40:14.663Z,100.00
2022-10-29T02:42:43.528Z,100.00
2022-10-29T02:45:12.010Z,100.00
2022-10-29T02:47:40.296Z,100.00
2022-10-29T02:50:10.406Z,100.00
2022-10-29T02:52:39.912Z,100.00
2022-10-29T02:55:08.623Z,100.00
2022-10-29T02:57:37.116Z,100.00
2022-10-29T03:00:06.700Z,100.00
2022-10-29T03:02:35.500Z,100.00
2022-10-29T03:05:05.837Z,100.00
2022-10-29T03:07:36.844Z,100.00
2022-10-29T03:10:08.751Z,100.00
2022-10-29T03:12:36.934Z,100.00
2022-10-29T03:15:06.329Z,100.00
2022-10-29T03:17:35.130Z,100.00
2022-10-29T03:20:03.333Z,100.00
2022-10-29T03:22:31.395Z,100.00
2022-10-29T03:24:59.425Z,100.00
2022-10-29T03:27:29.180Z,100.00
2022-10-29T03:29:57.448Z,100.00
2022-10-29T03:32:26.102Z,100.00
2022-10-29T03:34:57.436Z,100.00
2022-10-29T03:37:28.514Z,100.00
2022-10-29T03:39:57.190Z,100.00
2022-10-29T03:42:25.308Z,100.00
2022-10-29T03:44:54.759Z,100.00
2022-10-29T03:47:24.460Z,100.00
2022-10-29T03:49:52.438Z,100.00
2022-10-29T03:52:20.837Z,100.00
2022-10-29T03:54:51.391Z,100.00
2022-10-29T03:57:19.591Z,100.00
2022-10-29T03:59:51.635Z,100.00
2022-10-29T04:02:22.293Z,100.00
2022-10-29T04:04:50.521Z,100.00
2022-10-29T04:07:18.889Z,100.00
2022-10-29T04:09:47.023Z,100.00
2022-10-29T04:12:16.066Z,100.00
2022-10-29T04:14:45.949Z,100.00
2022-10-29T04:17:14.747Z,100.00
2022-10-29T04:19:44.968Z,100.00
2022-10-29T04:28:41.860Z,100.00
2022-10-29T04:30:37.710Z,100.00
2022-10-29T04:33:07.556Z,100.00
2022-10-29T04:35:37.011Z,100.00
2022-10-29T04:38:09.760Z,100.00
2022-10-29T04:40:38.462Z,100.00
2022-10-29T04:43:07.771Z,100.00
2022-10-29T04:45:38.417Z,100.00
2022-10-29T04:48:07.830Z,100.00
2022-10-29T04:50:41.221Z,100.00
2022-10-29T04:53:10.395Z,100.00
2022-10-29T04:55:39.933Z,100.00
2022-10-29T04:58:09.307Z,100.00
2022-10-29T05:00:37.997Z,100.00
2022-10-29T05:03:06.289Z,100.00
2022-10-29T05:05:34.586Z,100.00
2022-10-29T05:08:06.949Z,100.00
2022-10-29T05:10:36.856Z,100.00
2022-10-29T05:13:08.240Z,100.00
2022-10-29T05:15:36.671Z,100.00
2022-10-29T05:18:05.734Z,100.00
2022-10-29T05:20:34.449Z,100.00
2022-10-29T05:23:06.162Z,100.00
2022-10-29T05:25:36.896Z,100.00
2022-10-29T05:28:06.450Z,100.00
2022-10-29T05:30:35.738Z,100.00
2022-10-29T05:33:06.781Z,100.00
2022-10-29T05:35:36.141Z,100.00
2022-10-29T05:38:06.210Z,100.00
2022-10-29T05:40:34.671Z,100.00
2022-10-29T05:43:03.088Z,100.00
2022-10-29T05:45:31.443Z,100.00
2022-10-29T05:48:00.222Z,100.00
2022-10-29T05:50:30.689Z,100.00
2022-10-29T05:52:59.926Z,100.00
2022-10-29T05:55:30.699Z,100.00
2022-10-29T05:57:59.593Z,100.00
2022-10-29T06:00:29.275Z,100.00
2022-10-29T06:02:58.161Z,100.00
2022-10-29T06:05:27.107Z,100.00
2022-10-29T06:07:56.313Z,100.00
2022-10-29T06:10:25.124Z,100.00
2022-10-29T06:12:54.630Z,100.00
2022-10-29T06:15:22.921Z,100.00
2022-10-29T06:17:51.406Z,100.00
2022-10-29T06:20:21.815Z,100.00
2022-10-29T06:22:58.938Z,100.00
2022-10-29T06:25:28.792Z,100.00
2022-10-29T06:28:03.163Z,100.00
2022-10-29T06:30:32.807Z,100.00
2022-10-29T06:33:01.516Z,100.00
2022-10-29T06:35:31.162Z,100.00
2022-10-29T06:37:59.787Z,100.00
2022-10-29T06:40:29.480Z,100.00
2022-10-29T06:43:03.399Z,100.00
2022-10-29T06:45:32.731Z,100.00
2022-10-29T06:48:01.140Z,100.00
2022-10-29T06:50:33.227Z,100.00
2022-10-29T06:53:04.121Z,100.00
2022-10-29T06:55:32.187Z,100.00
2022-10-29T06:58:04.814Z,100.00
2022-10-29T07:00:34.528Z,100.00
2022-10-29T07:03:03.626Z,100.00
2022-10-29T07:05:31.986Z,100.00
2022-10-29T07:08:01.676Z,100.00
2022-10-29T07:10:31.794Z,100.00
2022-10-29T07:13:04.520Z,100.00
2022-10-29T07:15:36.439Z,100.00
2022-10-29T07:18:07.223Z,100.00
2022-10-29T07:20:39.063Z,100.00
2022-10-29T07:23:07.137Z,100.00
2022-10-29T07:25:37.269Z,100.00
2022-10-29T07:28:07.015Z,100.00
2022-10-29T07:30:36.942Z,100.00
2022-10-29T07:33:05.200Z,100.00
2022-10-29T07:35:34.305Z,100.00
2022-10-29T07:38:05.424Z,100.00
2022-10-29T07:40:39.574Z,100.00
2022-10-29T07:43:07.972Z,100.00
2022-10-29T07:45:37.832Z,100.00
2022-10-29T07:48:08.602Z,100.00
2022-10-29T07:50:39.466Z,100.00
2022-10-29T07:53:08.486Z,100.00
2022-10-29T07:55:36.911Z,100.00
2022-10-29T07:58:07.054Z,100.00
2022-10-29T08:00:41.262Z,100.00
2022-10-29T08:03:09.819Z,100.00
2022-10-29T08:05:42.538Z,100.00
2022-10-29T08:08:11.429Z,100.00
2022-10-29T08:10:40.083Z,100.00
2022-10-29T08:13:08.681Z,100.00
2022-10-29T08:15:38.126Z,100.00
2022-10-29T08:18:12.816Z,100.00
2022-10-29T08:20:41.966Z,100.00
2022-10-29T08:23:10.720Z,100.00
2022-10-29T08:25:41.644Z,100.00
2022-10-29T08:28:11.816Z,100.00
2022-10-29T08:30:44.360Z,100.00
2022-10-29T08:33:12.695Z,100.00
2022-10-29T08:35:40.855Z,100.00
2022-10-29T08:38:09.346Z,100.00
2022-10-29T08:40:49.740Z,100.00
2022-10-29T08:43:56.725Z,100.00
2022-10-29T08:46:39.764Z,100.00
2022-10-29T08:49:16.480Z,97.37
2022-10-29T08:51:49.922Z,96.92
2022-10-29T08:54:31.050Z,96.16
2022-10-29T08:57:03.358Z,95.41
2022-10-29T08:59:39.461Z,94.24
2022-10-29T09:02:15.269Z,93.99
2022-10-29T09:04:45.511Z,91.79
2022-10-29T09:07:55.244Z,90.74
2022-10-29T09:10:33.907Z,91.17
2022-10-29T09:13:14.634Z,90.28
2022-10-29T09:16:01.566Z,89.17
2022-10-29T09:18:44.471Z,85.66
2022-10-29T09:21:22.996Z,83.43
2022-10-29T09:24:08.903Z,81.31
2022-10-29T09:26:46.633Z,76.69
2022-10-29T09:29:44.461Z,75.82
2022-10-29T09:32:18.007Z,75.44
2022-10-29T09:34:50.875Z,73.07
2022-10-29T09:37:24.571Z,73.23
2022-10-29T09:39:56.043Z,73.63
2022-10-29T09:42:39.116Z,74.54
2022-10-29T09:45:14.709Z,74.83
2022-10-29T09:47:55.577Z,73.96
2022-10-29T09:50:31.735Z,73.59
2022-10-29T09:53:01.065Z,71.88
2022-10-29T09:55:35.853Z,67.28
2022-10-29T09:58:04.464Z,64.83
2022-10-29T10:00:35.086Z,64.80
2022-10-29T10:03:09.316Z,63.49
2022-10-29T10:05:58.368Z,63.68
2022-10-29T10:08:28.135Z,63.70
2022-10-29T10:10:59.318Z,63.92
2022-10-29T10:13:31.422Z,63.58
2022-10-29T10:16:01.422Z,63.83
2022-10-29T10:18:41.608Z,63.25
2022-10-29T10:21:12.685Z,63.32
2022-10-29T10:23:46.663Z,61.11
2022-10-29T10:26:37.360Z,61.08
2022-10-29T10:29:13.278Z,59.51
2022-10-29T10:31:41.758Z,57.68
2022-10-29T10:34:16.121Z,55.46
2022-10-29T10:36:49.923Z,54.60
2022-10-29T10:39:26.097Z,55.97
2022-10-29T10:41:55.706Z,55.85
2022-10-29T10:44:24.581Z,56.34
2022-10-29T10:46:55.467Z,55.46
2022-10-29T10:49:31.621Z,54.97
2022-10-29T10:52:04.620Z,54.80
2022-10-29T10:54:38.402Z,53.85
2022-10-29T10:57:20.689Z,53.41
2022-10-29T10:59:58.393Z,51.81
2022-10-29T11:02:35.049Z,51.11
2022-10-29T11:05:19.957Z,50.10
2022-10-29T11:08:00.209Z,49.48
2022-10-29T11:10:34.772Z,48.78
2022-10-29T11:13:07.670Z,48.73
2022-10-29T11:15:41.216Z,48.94
2022-10-29T11:18:18.629Z,48.31
2022-10-29T11:20:52.169Z,48.40
2022-10-29T11:23:40.822Z,48.43
2022-10-29T11:26:13.120Z,48.19
2022-10-29T11:28:49.941Z,47.83
2022-10-29T11:31:23.758Z,47.94
2022-10-29T11:34:05.959Z,47.08
2022-10-29T11:36:41.100Z,47.29
2022-10-29T11:39:20.796Z,47.89
2022-10-29T11:41:57.905Z,48.20
2022-10-29T11:44:27.609Z,48.25
2022-10-29T11:47:09.187Z,48.29
2022-10-29T11:49:55.838Z,48.16
2022-10-29T11:52:35.548Z,48.69
2022-10-29T11:55:18.013Z,47.65
2022-10-29T11:57:53.734Z,46.71
2022-10-29T12:00:26.909Z,47.17
2022-10-29T12:03:20.421Z,46.97
2022-10-29T12:06:00.298Z,46.47
2022-10-29T12:08:45.899Z,45.80
2022-10-29T12:11:23.774Z,45.64
2022-10-29T12:14:03.712Z,44.69
2022-10-29T12:16:46.101Z,43.41
2022-10-29T12:19:28.084Z,43.35
2022-10-29T12:22:05.051Z,43.77
2022-10-29T12:24:48.003Z,44.47
2022-10-29T12:27:25.139Z,44.13
2022-10-29T12:30:00.396Z,43.52
2022-10-29T12:32:34.411Z,42.99
2022-10-29T12:35:10.216Z,42.58
2022-10-29T12:37:44.477Z,42.74
2022-10-29T12:40:20.892Z,42.48
2022-10-29T12:42:51.965Z,41.95
2022-10-29T12:45:32.920Z,41.55
2022-10-29T12:48:09.495Z,41.25
2022-10-29T12:50:47.885Z,41.20
2022-10-29T12:53:27.036Z,40.97
2022-10-29T12:55:56.488Z,40.50
2022-10-29T12:58:50.120Z,39.89
2022-10-29T13:04:36.435Z,40.17
2022-10-29T13:07:07.113Z,40.09
2022-10-29T13:09:36.414Z,40.45
2022-10-29T13:12:08.590Z,40.25
2022-10-29T13:14:44.150Z,40.28
2022-10-29T13:17:29.158Z,40.98
2022-10-29T13:19:59.680Z,40.77
2022-10-29T13:22:54.419Z,40.32
2022-10-29T13:25:50.041Z,39.85
2022-10-29T13:28:47.740Z,39.56
2022-10-29T13:32:03.612Z,39.74
2022-10-29T13:34:57.380Z,39.62
2022-10-29T13:38:11.431Z,39.18
2022-10-29T13:41:12.094Z,38.84
2022-10-29T13:43:43.121Z,38.85
2022-10-29T13:46:47.706Z,38.62
2022-10-29T13:49:21.615Z,38.43
2022-10-29T13:51:55.218Z,37.83
2022-10-29T13:54:33.588Z,36.32
2022-10-29T13:57:06.017Z,35.54
2022-10-29T13:59:40.554Z,34.03
2022-10-29T14:02:27.354Z,31.33
2022-10-29T14:04:59.801Z,29.51
2022-10-29T14:07:36.094Z,30.35
2022-10-29T14:10:16.042Z,31.81
2022-10-29T14:12:46.666Z,33.49
2022-10-29T14:15:16.921Z,34.78
2022-10-29T14:17:46.266Z,35.36
2022-10-29T14:20:22.527Z,35.46
2022-10-29T14:22:52.002Z,36.06
2022-10-29T14:25:33.234Z,36.32
2022-10-29T14:28:26.537Z,35.90
2022-10-29T14:31:04.039Z,36.05
2022-10-29T14:33:35.430Z,36.65
2022-10-29T14:36:15.229Z,37.21
2022-10-29T14:38:48.052Z,37.11
2022-10-29T14:41:17.614Z,37.70
2022-10-29T14:43:51.663Z,37.88
2022-10-29T14:46:26.365Z,37.77
2022-10-29T14:49:00.294Z,37.94
2022-10-29T14:51:28.916Z,37.88
2022-10-29T14:54:02.076Z,38.18
2022-10-29T14:56:35.882Z,38.25
2022-10-29T14:59:13.657Z,38.42
2022-10-29T15:01:57.117Z,38.40
2022-10-29T15:04:31.414Z,38.58
2022-10-29T15:07:19.023Z,38.61
2022-10-29T15:09:48.389Z,38.76
2022-10-29T15:12:21.866Z,38.83
2022-10-29T15:14:51.668Z,39.21
2022-10-29T15:17:24.329Z,39.35
2022-10-29T15:19:55.571Z,39.89
2022-10-29T15:22:36.934Z,40.68
2022-10-29T15:25:09.084Z,41.39
2022-10-29T15:27:38.374Z,41.68
2022-10-29T15:30:07.618Z,41.24
2022-10-29T15:32:35.703Z,41.43
2022-10-29T15:35:03.961Z,41.18
2022-10-29T15:37:46.154Z,42.03
2022-10-29T15:40:17.773Z,41.46
2022-10-29T15:42:46.579Z,42.27
2022-10-29T15:45:28.954Z,42.36
2022-10-29T15:47:59.897Z,42.83
2022-10-29T15:50:40.863Z,43.01
2022-10-29T15:53:15.472Z,43.11
2022-10-29T15:55:44.875Z,42.88
2022-10-29T15:58:15.966Z,42.95
2022-10-29T16:01:00.328Z,43.91
2022-10-29T16:03:28.674Z,43.35
2022-10-29T16:06:01.098Z,44.31
2022-10-29T16:08:35.067Z,44.54
2022-10-29T16:11:09.805Z,44.78
2022-10-29T16:13:38.147Z,45.50
2022-10-29T16:16:07.988Z,47.31
2022-10-29T16:18:36.557Z,47.81
2022-10-29T16:21:07.921Z,47.81
2022-10-29T16:23:39.510Z,48.07
2022-10-29T16:26:11.478Z,49.29
2022-10-29T16:28:40.881Z,49.13
2022-10-29T16:31:20.855Z,46.12
2022-10-29T16:33:48.975Z,45.48
2022-10-29T16:36:17.373Z,44.04
2022-10-29T16:38:46.140Z,43.69
2022-10-29T16:41:18.777Z,43.47
2022-10-29T16:43:48.589Z,43.52
2022-10-29T16:46:16.945Z,43.18
2022-10-29T16:48:45.898Z,43.63
2022-10-29T16:51:13.923Z,43.64
2022-10-29T16:53:42.181Z,44.29
2022-10-29T16:56:10.123Z,43.99
2022-10-29T16:58:39.908Z,44.49
2022-10-29T17:01:10.602Z,44.74
2022-10-29T17:03:39.187Z,45.15
2022-10-29T17:06:09.148Z,45.19
2022-10-29T17:08:38.595Z,45.51
2022-10-29T17:11:10.383Z,45.83
2022-10-29T17:13:40.045Z,46.24
2022-10-29T17:16:08.909Z,46.49
2022-10-29T17:18:37.053Z,46.93
2022-10-29T17:21:10.042Z,47.52
2022-10-29T17:23:38.110Z,47.77
2022-10-29T17:26:06.799Z,48.11
2022-10-29T17:28:36.918Z,47.95
2022-10-29T17:31:08.275Z,48.30
2022-10-29T17:33:37.030Z,48.11
2022-10-29T17:36:06.780Z,48.30
2022-10-29T17:38:37.782Z,48.28
2022-10-29T17:41:06.340Z,48.87
2022-10-29T17:43:35.193Z,49.21
2022-10-29T17:46:03.095Z,49.51
2022-10-29T17:48:33.139Z,49.70
2022-10-29T17:51:03.310Z,49.68
2022-10-29T17:53:32.174Z,50.03
2022-10-29T17:56:00.479Z,50.09
2022-10-29T17:58:29.222Z,50.44
2022-10-29T18:01:06.018Z,50.82
2022-10-29T18:03:36.147Z,51.12
2022-10-29T18:06:06.042Z,51.17
2022-10-29T18:08:36.241Z,51.25
2022-10-29T18:11:05.408Z,52.31
2022-10-29T18:13:38.705Z,52.89
2022-10-29T18:16:07.309Z,53.10
2022-10-29T18:18:48.245Z,52.91
2022-10-29T18:21:27.255Z,54.33
2022-10-29T18:23:55.555Z,55.29
2022-10-29T18:26:27.005Z,56.06
2022-10-29T18:28:56.880Z,55.69
2022-10-29T18:31:27.815Z,56.79
2022-10-29T18:33:58.077Z,57.72
2022-10-29T18:36:26.174Z,58.71
2022-10-29T18:38:55.793Z,59.14
2022-10-29T18:41:25.196Z,59.35
2022-10-29T18:43:54.637Z,59.99
2022-10-29T18:46:24.497Z,60.34
2022-10-29T18:48:52.892Z,60.54
2022-10-29T18:51:24.564Z,60.75
2022-10-29T18:53:53.681Z,60.46
2022-10-29T18:56:24.237Z,60.96
2022-10-29T18:58:52.252Z,61.66
2022-10-29T19:01:22.873Z,62.45
2022-10-29T19:03:52.829Z,62.72
2022-10-29T19:06:24.136Z,63.58
2022-10-29T19:08:52.332Z,64.86
2022-10-29T19:11:21.927Z,65.33
2022-10-29T19:13:52.284Z,66.40
2022-10-29T19:16:22.394Z,67.46
2022-10-29T19:18:55.984Z,68.33
2022-10-29T19:21:26.730Z,68.83
2022-10-29T19:23:56.192Z,69.85
2022-10-29T19:26:25.901Z,70.02
2022-10-29T19:28:54.314Z,70.26
2022-10-29T19:31:26.383Z,70.33
2022-10-29T19:33:56.077Z,70.63
2022-10-29T19:36:31.746Z,71.03
2022-10-29T19:39:01.128Z,71.17
2022-10-29T19:41:30.676Z,71.18
2022-10-29T19:44:01.455Z,71.93
2022-10-29T19:46:30.633Z,72.77
2022-10-29T19:49:00.768Z,73.54
2022-10-29T19:51:30.432Z,74.62
2022-10-29T19:54:02.074Z,73.56
2022-10-29T19:56:30.570Z,74.24
2022-10-29T19:59:01.026Z,74.42
2022-10-29T20:01:29.188Z,75.26
2022-10-29T20:03:59.609Z,75.84
2022-10-29T20:06:29.517Z,76.67
2022-10-29T20:08:57.429Z,77.23
2022-10-29T20:11:25.674Z,76.62
2022-10-29T20:13:54.095Z,77.92
2022-10-29T20:16:23.156Z,78.80
2022-10-29T20:18:52.422Z,78.64
2022-10-29T20:21:20.666Z,78.34
2022-10-29T20:23:50.171Z,78.42
2022-10-29T20:26:18.502Z,80.04
2022-10-29T20:28:48.042Z,81.23
2022-10-29T20:31:30.412Z,82.21
2022-10-29T20:34:02.859Z,84.21
2022-10-29T20:36:32.771Z,85.47
2022-10-29T20:39:02.619Z,87.10
2022-10-29T20:41:31.913Z,89.12
2022-10-29T20:44:01.379Z,90.39
2022-10-29T20:46:30.712Z,91.97
2022-10-29T20:48:59.296Z,93.81
2022-10-29T20:51:29.463Z,94.42
2022-10-29T20:53:57.900Z,95.00
2022-10-29T20:56:28.503Z,95.94
2022-10-29T20:58:56.818Z,96.30
2022-10-29T21:01:26.119Z,98.22
2022-10-29T21:03:54.632Z,98.88
2022-10-29T21:06:23.789Z,99.37
2022-10-29T21:08:53.924Z,100.00
2022-10-29T21:11:23.822Z,100.00
2022-10-29T21:13:53.559Z,99.25
2022-10-29T21:16:23.354Z,98.73
2022-10-29T21:18:52.992Z,97.90
2022-10-29T21:21:21.725Z,98.41
2022-10-29T21:23:50.436Z,98.79
2022-10-29T21:26:21.474Z,98.94
2022-10-29T21:28:50.425Z,98.63
2022-10-29T21:31:20.811Z,99.24
2022-10-29T21:33:51.183Z,99.01
2022-10-29T21:36:20.224Z,99.44
2022-10-29T21:38:48.612Z,99.57
2022-10-29T21:41:17.493Z,98.87
2022-10-29T21:43:46.726Z,99.09
2022-10-29T21:46:14.723Z,100.00
2022-10-29T21:48:44.361Z,100.00
2022-10-29T21:51:17.339Z,100.00
2022-10-29T21:53:45.709Z,100.00
2022-10-29T21:56:15.554Z,100.00
2022-10-29T21:58:44.277Z,100.00
2022-10-29T22:01:14.632Z,100.00
2022-10-29T22:03:46.829Z,100.00
2022-10-29T22:06:17.151Z,100.00
2022-10-29T22:08:46.125Z,100.00
2022-10-29T22:11:16.204Z,99.81
2022-10-29T22:13:45.503Z,100.00
2022-10-29T22:16:13.684Z,100.00
2022-10-29T22:18:43.293Z,100.00
2022-10-29T22:21:13.885Z,100.00
2022-10-29T22:23:45.961Z,100.00
2022-10-29T22:26:16.564Z,100.00
2022-10-29T22:28:45.052Z,100.00
2022-10-29T22:31:13.170Z,100.00
2022-10-29T22:33:46.973Z,100.00
2022-10-29T22:36:17.351Z,100.00
2022-10-29T22:38:45.843Z,100.00
2022-10-29T22:41:17.032Z,100.00
2022-10-29T22:43:47.249Z,100.00
2022-10-29T22:46:17.018Z,100.00
2022-10-29T22:48:48.869Z,100.00
2022-10-29T22:51:19.806Z,100.00
2022-10-29T22:53:48.526Z,100.00
2022-10-29T22:56:18.521Z,100.00
2022-10-29T22:58:47.174Z,100.00
2022-10-29T23:01:16.549Z,100.00
2022-10-29T23:03:47.128Z,100.00
2022-10-29T23:06:17.462Z,100.00
2022-10-29T23:08:46.004Z,100.00
2022-10-29T23:11:19.611Z,100.00
2022-10-29T23:13:49.325Z,100.00
2022-10-29T23:16:18.301Z,100.00
2022-10-29T23:18:54.190Z,100.00
2022-10-29T23:21:22.936Z,100.00
2022-10-29T23:23:51.262Z,100.00
2022-10-29T23:26:20.834Z,100.00
2022-10-29T23:28:50.195Z,100.00
2022-10-29T23:31:20.029Z,100.00
2022-10-29T23:33:51.414Z,100.00
2022-10-29T23:36:20.587Z,100.00
2022-10-29T23:38:48.925Z,100.00
2022-10-29T23:41:16.894Z,100.00
2022-10-29T23:43:45.494Z,100.00
2022-10-29T23:46:13.763Z,100.00
2022-10-29T23:48:41.922Z,100.00
2022-10-29T23:51:11.571Z,100.00
2022-10-29T23:53:39.989Z,100.00
2022-10-29T23:56:12.040Z,100.00
2022-10-29T23:58:40.232Z,100.00
